Time;durP1;ratioP1;P1;durP2;ratioP2;P2;SDS_P1;SDS_P2;PMS_P1;PMS_P2;Temp;Humidity;BMP_temperature;BMP_pressure;BME280_temperature;BME280_humidity;BME280_pressure;Samples;Min_cycle;Max_cycle;Signal;HPM_P1;HPM_P2
2022/09/15 00:01:02;;;;;;;;;;;15.40;99.90;;;;;;5041927;28;19920;-73
2022/09/15 00:03:27;;;;;;;;;;;15.40;99.90;;;;;;5045175;28;19942;-72
2022/09/15 00:05:53;;;;;;;;;;;15.40;99.90;;;;;;5041018;28;20436;-73
2022/09/15 00:08:19;;;;;;;;;;;15.30;99.90;;;;;;5068832;28;19920;-72
2022/09/15 00:10:47;;;;;;;;;;;15.30;99.90;;;;;;5052545;28;19920;-73
2022/09/15 00:13:12;;;;;;;;;;;15.50;99.90;;;;;;5053115;28;19920;-73
2022/09/15 00:15:41;;;;;;;;;;;15.50;99.90;;;;;;5071090;28;19983;-73
2022/09/15 00:18:06;;;;;;;;;;;15.40;99.90;;;;;;5046012;28;19921;-73
2022/09/15 00:20:42;;;;;;;;;;;15.40;99.90;;;;;;5044896;28;19920;-73
2022/09/15 00:23:08;;;;;;;;;;;15.90;99.90;;;;;;5066805;28;20368;-72
2022/09/15 00:25:34;;;;;;;;;;;15.40;99.90;;;;;;5070607;28;19920;-73
2022/09/15 00:27:59;;;;;;;;;;;15.40;99.90;;;;;;5070998;28;19920;-73
2022/09/15 00:30:25;;;;;;;;;;;15.40;99.90;;;;;;5073822;28;19928;-72
2022/09/15 00:32:50;;;;;;;;;;;15.40;99.90;;;;;;5070426;28;19931;-72
2022/09/15 00:35:16;;;;;;;;;;;15.40;99.90;;;;;;5045809;28;19928;-73
2022/09/15 00:37:42;;;;;;;;;;;15.40;99.90;;;;;;5056290;28;19927;-72
2022/09/15 00:40:08;;;;;;;;;;;15.40;99.90;;;;;;5056389;28;19920;-73
2022/09/15 00:42:33;;;;;;;;;;;15.40;99.90;;;;;;5056496;28;19920;-73
2022/09/15 00:45:00;;;;;;;;;;;15.40;99.90;;;;;;5055893;28;20391;-72
2022/09/15 00:47:28;;;;;;;;;;;15.50;99.90;;;;;;5055785;28;19928;-73
2022/09/15 00:49:58;;;;;;;;;;;15.50;99.90;;;;;;5064820;28;19990;-72
2022/09/15 00:52:29;;;;;;;;;;;15.50;99.90;;;;;;5051252;28;20020;-73
2022/09/15 00:54:59;;;;;;;;;;;15.50;99.90;;;;;;5056149;28;20384;-73
2022/09/15 00:57:30;;;;;;;;;;;15.40;99.90;;;;;;5073820;28;20383;-72
2022/09/15 00:59:57;;;;;;;;;;;15.40;99.90;;;;;;5055563;28;20280;-73
2022/09/15 01:02:25;;;;;;;;;;;15.40;99.90;;;;;;5052383;28;19920;-73
2022/09/15 01:04:51;;;;;;;;;;;15.40;99.90;;;;;;5044952;28;19960;-73
2022/09/15 01:07:21;;;;;;;;;;;15.50;99.90;;;;;;5045301;28;19935;-74
2022/09/15 01:09:57;;;;;;;;;;;15.50;99.90;;;;;;5063614;28;19927;-73
2022/09/15 01:12:23;;;;;;;;;;;15.50;99.90;;;;;;5064871;28;19974;-74
2022/09/15 01:14:52;;;;;;;;;;;15.50;99.90;;;;;;5062368;28;19920;-73
2022/09/15 01:17:29;;;;;;;;;;;15.50;99.90;;;;;;5045725;28;19974;-74
2022/09/15 01:20:14;;;;;;;;;;;15.40;99.90;;;;;;5050555;28;20383;-73
2022/09/15 01:22:43;;;;;;;;;;;15.40;99.90;;;;;;5070997;28;20010;-73
2022/09/15 01:25:20;;;;;;;;;;;15.40;99.90;;;;;;5073764;28;19926;-73
2022/09/15 01:27:52;;;;;;;;;;;15.30;99.90;;;;;;5054568;28;19928;-73
2022/09/15 01:30:22;;;;;;;;;;;15.30;99.90;;;;;;5055775;28;20757;-73
2022/09/15 01:33:06;;;;;;;;;;;15.30;99.90;;;;;;5066064;28;20007;-73
2022/09/15 01:35:32;;;;;;;;;;;15.30;99.90;;;;;;5070496;28;19927;-73
2022/09/15 01:38:07;;;;;;;;;;;15.30;99.90;;;;;;5072827;28;19920;-72
2022/09/15 01:40:38;;;;;;;;;;;15.30;99.90;;;;;;5054229;28;20279;-73
2022/09/15 01:43:05;;;;;;;;;;;15.30;99.90;;;;;;5055592;28;19996;-73
2022/09/15 01:45:34;;;;;;;;;;;15.30;99.90;;;;;;5072704;28;19924;-73
2022/09/15 01:48:00;;;;;;;;;;;15.30;99.90;;;;;;5044442;28;19921;-73
2022/09/15 01:50:30;;;;;;;;;;;15.30;99.90;;;;;;5070526;28;19916;-73
2022/09/15 01:52:58;;;;;;;;;;;15.10;99.90;;;;;;5057937;28;20378;-73
2022/09/15 01:55:26;;;;;;;;;;;15.20;99.90;;;;;;5074697;28;20015;-73
2022/09/15 01:57:52;;;;;;;;;;;15.10;99.90;;;;;;5057198;28;20360;-72
2022/09/15 02:00:17;;;;;;;;;;;15.10;99.90;;;;;;5057733;28;19942;-73
2022/09/15 02:02:49;;;;;;;;;;;15.00;99.90;;;;;;5062197;28;20315;-73
2022/09/15 02:05:24;;;;;;;;;;;15.00;99.90;;;;;;5061008;28;19920;-73
2022/09/15 02:07:54;;;;;;;;;;;15.00;99.90;;;;;;5051438;28;19962;-73
2022/09/15 02:10:31;;;;;;;;;;;15.00;99.90;;;;;;5071921;28;19924;-73
2022/09/15 02:13:02;;;;;;;;;;;15.00;99.90;;;;;;5072668;28;19920;-73
2022/09/15 02:15:32;;;;;;;;;;;15.00;99.90;;;;;;5051468;28;20351;-73
2022/09/15 02:18:01;;;;;;;;;;;15.00;99.90;;;;;;5062295;28;19920;-73
2022/09/15 02:20:33;;;;;;;;;;;15.10;99.90;;;;;;5044904;28;19920;-73
2022/09/15 02:23:06;;;;;;;;;;;15.10;99.90;;;;;;5043635;28;19921;-73
2022/09/15 02:25:35;;;;;;;;;;;15.10;99.90;;;;;;5061577;28;19920;-73
2022/09/15 02:28:03;;;;;;;;;;;15.20;99.90;;;;;;5062670;28;20015;-73
2022/09/15 02:30:30;;;;;;;;;;;15.10;99.90;;;;;;5059818;28;19920;-73
2022/09/15 02:33:01;;;;;;;;;;;15.10;99.90;;;;;;5055293;28;19920;-72
2022/09/15 02:35:28;;;;;;;;;;;15.20;99.90;;;;;;5054445;28;20037;-73
2022/09/15 02:37:55;;;;;;;;;;;15.20;99.90;;;;;;5075671;28;20042;-72
2022/09/15 02:40:21;;;;;;;;;;;15.20;99.90;;;;;;5055270;28;20481;-73
2022/09/15 02:42:57;;;;;;;;;;;15.20;99.90;;;;;;5056492;28;19943;-73
2022/09/15 02:45:23;;;;;;;;;;;15.20;99.90;;;;;;5070510;28;20046;-74
2022/09/15 02:47:49;;;;;;;;;;;15.10;99.10;;;;;;5049811;28;19920;-73
2022/09/15 02:50:15;;;;;;;;;;;15.20;98.60;;;;;;5063260;28;19920;-73
2022/09/15 02:52:40;;;;;;;;;;;15.20;97.90;;;;;;5066278;28;19924;-73
2022/09/15 02:55:06;;;;;;;;;;;15.30;97.70;;;;;;5048227;28;19921;-73
2022/09/15 02:57:31;;;;;;;;;;;15.30;97.40;;;;;;5048899;28;19935;-73
2022/09/15 03:00:13;;;;;;;;;;;15.20;97.20;;;;;;5060609;28;19921;-73
2022/09/15 03:02:48;;;;;;;;;;;15.20;97.50;;;;;;5067875;28;19931;-73
2022/09/15 03:05:14;;;;;;;;;;;15.20;97.70;;;;;;5068863;28;19927;-72
2022/09/15 03:07:40;;;;;;;;;;;15.20;97.60;;;;;;5052943;28;20342;-73
2022/09/15 03:10:06;;;;;;;;;;;15.30;97.30;;;;;;5054098;28;19928;-73
2022/09/15 03:12:42;;;;;;;;;;;15.20;97.50;;;;;;5070858;28;20386;-72
2022/09/15 03:15:09;;;;;;;;;;;15.10;98.00;;;;;;5063750;28;19925;-73
2022/09/15 03:17:35;;;;;;;;;;;15.00;98.10;;;;;;5067409;28;19920;-73
2022/09/15 03:20:02;;;;;;;;;;;15.00;98.50;;;;;;5053760;28;20449;-72
2022/09/15 03:22:27;;;;;;;;;;;15.00;98.80;;;;;;5071075;28;19929;-73
2022/09/15 03:24:53;;;;;;;;;;;15.00;99.10;;;;;;5053845;28;19920;-73
2022/09/15 03:27:18;;;;;;;;;;;15.00;99.30;;;;;;5051173;28;19924;-77
2022/09/15 03:29:44;;;;;;;;;;;14.90;99.60;;;;;;5058740;28;20054;-72
2022/09/15 03:32:09;;;;;;;;;;;15.00;99.80;;;;;;5051102;28;19920;-74
2022/09/15 03:34:35;;;;;;;;;;;14.90;99.90;;;;;;5070539;28;19920;-73
2022/09/15 03:37:10;;;;;;;;;;;15.00;99.90;;;;;;5054023;28;20017;-74
2022/09/15 03:39:36;;;;;;;;;;;15.00;99.80;;;;;;5067975;28;20439;-75
2022/09/15 03:42:04;;;;;;;;;;;15.10;99.90;;;;;;5053787;28;20328;-76
2022/09/15 03:44:30;;;;;;;;;;;15.10;99.90;;;;;;5065688;28;20059;-75
2022/09/15 03:46:56;;;;;;;;;;;15.10;99.90;;;;;;5044442;28;19921;-80
2022/09/15 03:49:23;;;;;;;;;;;15.00;99.90;;;;;;5052771;28;19920;-72
2022/09/15 03:51:49;;;;;;;;;;;15.00;99.90;;;;;;5071827;28;19921;-72
2022/09/15 03:54:14;;;;;;;;;;;15.00;99.90;;;;;;5058507;28;20010;-72
2022/09/15 03:56:40;;;;;;;;;;;14.90;99.90;;;;;;5042180;28;19970;-77
2022/09/15 03:59:06;;;;;;;;;;;15.00;99.90;;;;;;5043890;28;19979;-76
2022/09/15 04:01:31;;;;;;;;;;;14.90;99.90;;;;;;5070656;28;19928;-75
2022/09/15 04:04:00;;;;;;;;;;;14.90;99.90;;;;;;5072660;28;19927;-76
2022/09/15 04:06:26;;;;;;;;;;;14.90;99.90;;;;;;5070899;28;20291;-76
2022/09/15 04:08:52;;;;;;;;;;;14.90;99.90;;;;;;5057020;28;19921;-75
2022/09/15 04:11:18;;;;;;;;;;;14.90;99.90;;;;;;5056185;28;19967;-77
2022/09/15 04:13:44;;;;;;;;;;;15.00;99.90;;;;;;5071384;28;19921;-76
2022/09/15 04:16:14;;;;;;;;;;;15.00;99.90;;;;;;5064064;28;19928;-77
2022/09/15 04:18:40;;;;;;;;;;;15.00;99.90;;;;;;5067236;28;19979;-76
2022/09/15 04:21:07;;;;;;;;;;;15.10;99.90;;;;;;5047020;28;19924;-76
2022/09/15 04:23:32;;;;;;;;;;;15.10;99.90;;;;;;5043599;28;19924;-75
2022/09/15 04:26:03;;;;;;;;;;;15.10;99.90;;;;;;5027936;28;19924;-76
2022/09/15 04:28:31;;;;;;;;;;;15.10;99.90;;;;;;5028959;28;19921;-75
2022/09/15 04:31:10;;;;;;;;;;;15.10;99.90;;;;;;5036412;28;19923;-76
2022/09/15 04:33:36;;;;;;;;;;;15.10;99.90;;;;;;5036700;28;19921;-76
2022/09/15 04:36:12;;;;;;;;;;;15.00;99.90;;;;;;5054238;28;19917;-75
2022/09/15 04:38:38;;;;;;;;;;;15.00;99.90;;;;;;5036585;28;20640;-75
2022/09/15 04:41:04;;;;;;;;;;;15.00;99.90;;;;;;5036963;28;19942;-75
2022/09/15 04:43:30;;;;;;;;;;;15.00;99.90;;;;;;5030181;28;19924;-75
2022/09/15 04:45:55;;;;;;;;;;;15.10;99.90;;;;;;5042604;28;19928;-75
2022/09/15 04:48:22;;;;;;;;;;;15.00;99.90;;;;;;5028394;28;20360;-75
2022/09/15 04:50:50;;;;;;;;;;;14.90;99.90;;;;;;5024841;28;19928;-75
2022/09/15 04:53:19;;;;;;;;;;;14.90;99.90;;;;;;5028153;28;20007;-75
2022/09/15 04:55:45;;;;;;;;;;;14.90;99.90;;;;;;5042792;28;19921;-76
2022/09/15 04:58:11;;;;;;;;;;;14.90;99.90;;;;;;5045898;28;19932;-76
2022/09/15 05:00:42;;;;;;;;;;;14.90;99.90;;;;;;5036641;28;19931;-76
2022/09/15 05:03:11;;;;;;;;;;;14.80;99.90;;;;;;5055747;28;19920;-73
2022/09/15 05:05:37;;;;;;;;;;;14.90;99.90;;;;;;5037989;28;19924;-73
2022/09/15 05:08:03;;;;;;;;;;;14.90;99.90;;;;;;5051279;28;19988;-73
2022/09/15 05:10:29;;;;;;;;;;;14.90;99.90;;;;;;5027676;28;19930;-71
2022/09/15 05:12:54;;;;;;;;;;;14.90;99.90;;;;;;5044145;28;20365;-73
2022/09/15 05:15:20;;;;;;;;;;;14.90;99.90;;;;;;5023835;28;20004;-72
2022/09/15 05:17:46;;;;;;;;;;;14.90;99.90;;;;;;5028099;28;20434;-72
2022/09/15 05:20:11;;;;;;;;;;;14.90;99.90;;;;;;5041219;28;19969;-71
2022/09/15 05:22:37;;;;;;;;;;;14.90;99.90;;;;;;5038971;28;19974;-72
2022/09/15 05:25:03;;;;;;;;;;;14.90;99.90;;;;;;5046564;28;19921;-72
2022/09/15 05:27:32;;;;;;;;;;;14.90;99.90;;;;;;5044616;28;20296;-72
2022/09/15 05:29:58;;;;;;;;;;;14.90;99.90;;;;;;5045256;28;19920;-72
2022/09/15 05:32:23;;;;;;;;;;;14.90;99.90;;;;;;5063033;28;19966;-71
2022/09/15 05:34:49;;;;;;;;;;;15.00;99.90;;;;;;5043669;28;20365;-71
2022/09/15 05:37:15;;;;;;;;;;;14.90;99.90;;;;;;5050910;28;20334;-70
2022/09/15 05:39:40;;;;;;;;;;;14.90;99.90;;;;;;5049076;28;19966;-71
2022/09/15 05:42:06;;;;;;;;;;;15.00;99.90;;;;;;5043515;28;19971;-73
2022/09/15 05:44:31;;;;;;;;;;;15.00;99.90;;;;;;5071938;28;20014;-75
2022/09/15 05:46:57;;;;;;;;;;;15.00;99.90;;;;;;5072646;28;19920;-76
2022/09/15 05:49:23;;;;;;;;;;;15.00;99.90;;;;;;5072654;28;19920;-72
2022/09/15 05:51:48;;;;;;;;;;;15.00;99.90;;;;;;5055506;28;19920;-73
2022/09/15 05:54:14;;;;;;;;;;;15.10;99.90;;;;;;5054711;28;19935;-73
2022/09/15 05:56:39;;;;;;;;;;;15.10;99.90;;;;;;5072719;28;19920;-76
2022/09/15 05:59:05;;;;;;;;;;;15.10;99.90;;;;;;5064209;28;20003;-72
2022/09/15 06:01:30;;;;;;;;;;;15.10;99.90;;;;;;5045620;28;20311;-72
2022/09/15 06:03:56;;;;;;;;;;;15.10;99.90;;;;;;5055086;28;20379;-74
2022/09/15 06:06:23;;;;;;;;;;;15.10;99.90;;;;;;5072351;28;19924;-73
2022/09/15 06:08:54;;;;;;;;;;;15.10;99.90;;;;;;5054707;28;19935;-73
2022/09/15 06:11:21;;;;;;;;;;;15.10;99.90;;;;;;5072586;28;19924;-72
2022/09/15 06:13:47;;;;;;;;;;;15.00;99.90;;;;;;5061813;28;20414;-72
2022/09/15 06:16:14;;;;;;;;;;;15.10;99.90;;;;;;5045653;28;20390;-74
2022/09/15 06:18:40;;;;;;;;;;;15.00;99.90;;;;;;5065606;28;20367;-75
2022/09/15 06:21:07;;;;;;;;;;;15.10;99.90;;;;;;5063657;28;20295;-73
2022/09/15 06:23:33;;;;;;;;;;;15.10;99.90;;;;;;5062745;28;19974;-73
2022/09/15 06:26:15;;;;;;;;;;;15.10;99.90;;;;;;5050533;28;19956;-71
2022/09/15 06:28:45;;;;;;;;;;;15.00;99.90;;;;;;5062383;28;20077;-72
2022/09/15 06:31:12;;;;;;;;;;;14.90;99.90;;;;;;5041319;28;19933;-72
2022/09/15 06:33:42;;;;;;;;;;;14.80;99.90;;;;;;5067914;28;19920;-74
2022/09/15 06:36:08;;;;;;;;;;;14.80;99.90;;;;;;5061213;28;19924;-74
2022/09/15 06:38:34;;;;;;;;;;;14.80;99.90;;;;;;5040624;28;20052;-74
2022/09/15 06:41:00;;;;;;;;;;;14.80;99.90;;;;;;5050272;28;20010;-74
2022/09/15 06:43:25;;;;;;;;;;;14.90;99.90;;;;;;5066126;28;20339;-75
2022/09/15 06:45:51;;;;;;;;;;;14.90;99.90;;;;;;5061668;28;19924;-74
2022/09/15 06:48:17;;;;;;;;;;;15.00;99.90;;;;;;5061082;28;19920;-74
2022/09/15 06:50:42;;;;;;;;;;;15.00;99.90;;;;;;5060613;28;19921;-74
2022/09/15 06:53:08;;;;;;;;;;;15.10;99.90;;;;;;5044911;28;19928;-75
2022/09/15 06:55:33;;;;;;;;;;;15.10;99.90;;;;;;5059971;28;19921;-75
2022/09/15 06:58:02;;;;;;;;;;;15.60;99.90;;;;;;5062798;28;19920;-74
2022/09/15 07:00:30;;;;;;;;;;;15.30;99.90;;;;;;5068666;28;19920;-74
2022/09/15 07:02:56;;;;;;;;;;;15.30;99.90;;;;;;5045128;28;19944;-75
2022/09/15 07:05:24;;;;;;;;;;;15.30;99.90;;;;;;5070290;28;19924;-75
2022/09/15 07:07:49;;;;;;;;;;;15.40;99.90;;;;;;5072048;28;19920;-74
2022/09/15 07:10:18;;;;;;;;;;;15.40;99.90;;;;;;5053874;28;19920;-73
2022/09/15 07:12:44;;;;;;;;;;;15.50;99.90;;;;;;5053354;28;20062;-74
2022/09/15 07:15:10;;;;;;;;;;;15.50;99.90;;;;;;5072141;28;19974;-74
2022/09/15 07:17:36;;;;;;;;;;;15.50;99.90;;;;;;5068818;28;20555;-74
2022/09/15 07:20:02;;;;;;;;;;;15.50;99.90;;;;;;5043701;28;19924;-74
2022/09/15 07:22:27;;;;;;;;;;;15.40;99.90;;;;;;5049805;28;19927;-74
2022/09/15 07:24:53;;;;;;;;;;;15.30;99.90;;;;;;5064009;28;20331;-74
2022/09/15 07:27:18;;;;;;;;;;;15.30;99.90;;;;;;5059391;28;19927;-74
2022/09/15 07:29:44;;;;;;;;;;;15.30;99.90;;;;;;5044422;28;20029;-74
2022/09/15 07:32:09;;;;;;;;;;;15.40;99.90;;;;;;5047984;28;19925;-75
2022/09/15 07:34:35;;;;;;;;;;;15.90;99.90;;;;;;5043159;28;20363;-76
2022/09/15 07:37:01;;;;;;;;;;;17.40;99.90;;;;;;5060620;28;19971;-76
2022/09/15 07:39:27;;;;;;;;;;;18.70;99.90;;;;;;5048601;28;19921;-76
2022/09/15 07:41:53;;;;;;;;;;;19.90;98.90;;;;;;5045604;28;20012;-75
2022/09/15 07:44:19;;;;;;;;;;;20.40;97.20;;;;;;5075406;28;19998;-77
2022/09/15 07:46:45;;;;;;;;;;;20.80;97.10;;;;;;5055733;28;19974;-76
2022/09/15 07:49:10;;;;;;;;;;;21.50;96.60;;;;;;5066039;28;19983;-74
2022/09/15 07:51:36;;;;;;;;;;;21.70;94.90;;;;;;5070956;28;20360;-76
2022/09/15 07:54:01;;;;;;;;;;;21.10;93.80;;;;;;5056994;28;19925;-75
2022/09/15 07:56:27;;;;;;;;;;;20.40;94.60;;;;;;5075188;28;19920;-75
2022/09/15 07:58:52;;;;;;;;;;;20.00;94.50;;;;;;5057600;28;19962;-75
2022/09/15 08:01:19;;;;;;;;;;;19.60;95.50;;;;;;5056015;28;20364;-76
2022/09/15 08:03:45;;;;;;;;;;;19.40;95.30;;;;;;5066455;28;19921;-75
2022/09/15 08:06:11;;;;;;;;;;;19.20;95.40;;;;;;5044955;28;19928;-74
2022/09/15 08:08:38;;;;;;;;;;;19.20;95.30;;;;;;5045769;28;19924;-75
2022/09/15 08:11:07;;;;;;;;;;;19.20;95.40;;;;;;5066852;28;19921;-75
2022/09/15 08:13:33;;;;;;;;;;;19.20;95.50;;;;;;5049061;28;19917;-75
2022/09/15 08:16:14;;;;;;;;;;;19.60;94.50;;;;;;5066196;28;19921;-74
2022/09/15 08:18:41;;;;;;;;;;;20.20;93.70;;;;;;5071473;28;19920;-77
2022/09/15 08:21:08;;;;;;;;;;;20.70;94.00;;;;;;5056925;28;19920;-77
2022/09/15 08:23:33;;;;;;;;;;;20.90;93.30;;;;;;5056202;28;20435;-75
2022/09/15 08:25:59;;;;;;;;;;;20.50;93.00;;;;;;5056859;28;20055;-76
2022/09/15 08:28:28;;;;;;;;;;;20.10;92.70;;;;;;5073925;28;19928;-76
2022/09/15 08:30:57;;;;;;;;;;;18.90;92.90;;;;;;5055961;28;20471;-72
2022/09/15 08:33:22;;;;;;;;;;;19.50;93.60;;;;;;5048365;28;19920;-77
2022/09/15 08:35:48;;;;;;;;;;;19.50;94.30;;;;;;5062710;28;19931;-77
2022/09/15 08:38:13;;;;;;;;;;;19.60;94.60;;;;;;5066428;28;19920;-78
2022/09/15 08:40:44;;;;;;;;;;;20.00;95.00;;;;;;5044714;28;19920;-76
2022/09/15 08:43:16;;;;;;;;;;;20.40;94.90;;;;;;5064349;28;20011;-76
2022/09/15 08:45:46;;;;;;;;;;;20.90;93.90;;;;;;5052796;28;19927;-76
2022/09/15 08:48:14;;;;;;;;;;;21.30;93.70;;;;;;5044814;28;19951;-76
2022/09/15 08:50:47;;;;;;;;;;;21.30;93.80;;;;;;5054608;28;20011;-78
2022/09/15 08:53:22;;;;;;;;;;;20.90;94.10;;;;;;5071408;28;19960;-78
2022/09/15 08:55:48;;;;;;;;;;;20.80;94.30;;;;;;5056352;28;20276;-75
2022/09/15 08:58:20;;;;;;;;;;;20.90;94.00;;;;;;5052665;28;19927;-76
2022/09/15 09:00:47;;;;;;;;;;;21.70;94.00;;;;;;5065197;28;19920;-76
2022/09/15 09:03:13;;;;;;;;;;;23.30;91.80;;;;;;5044080;28;19982;-77
2022/09/15 09:05:58;;;;;;;;;;;24.10;90.30;;;;;;5064979;28;19920;-78
2022/09/15 09:08:36;;;;;;;;;;;24.10;89.10;;;;;;5066490;28;19986;-75
2022/09/15 09:11:02;;;;;;;;;;;23.40;90.10;;;;;;5063715;28;19924;-77
2022/09/15 09:13:38;;;;;;;;;;;23.30;90.80;;;;;;5044127;28;19970;-78
2022/09/15 09:16:13;;;;;;;;;;;24.00;89.20;;;;;;5067216;28;20007;-78
2022/09/15 09:18:52;;;;;;;;;;;25.00;88.20;;;;;;5060219;28;19920;-82
2022/09/15 09:21:22;;;;;;;;;;;26.10;83.60;;;;;;5042644;28;19924;-75
2022/09/15 09:23:48;;;;;;;;;;;26.30;82.50;;;;;;5056648;28;19925;-77
2022/09/15 09:26:14;;;;;;;;;;;26.60;82.00;;;;;;5036480;28;20343;-79
2022/09/15 09:28:54;;;;;;;;;;;26.50;80.10;;;;;;5038921;28;20020;-78
2022/09/15 09:31:20;;;;;;;;;;;26.00;80.60;;;;;;5053881;28;19921;-77
2022/09/15 09:34:04;;;;;;;;;;;26.00;79.90;;;;;;5036952;28;19921;-85
2022/09/15 09:36:29;;;;;;;;;;;25.60;82.40;;;;;;5055695;28;19931;-81
2022/09/15 09:38:55;;;;;;;;;;;24.90;84.70;;;;;;5056458;28;19921;-83
2022/09/15 09:41:34;;;;;;;;;;;24.40;85.00;;;;;;5035812;28;19943;-81
2022/09/15 09:44:01;;;;;;;;;;;24.00;85.90;;;;;;5032600;28;20023;-81
2022/09/15 09:46:27;;;;;;;;;;;24.00;86.90;;;;;;5052469;28;20297;-78
2022/09/15 09:48:55;;;;;;;;;;;23.70;87.90;;;;;;5052324;28;19929;-76
2022/09/15 09:51:35;;;;;;;;;;;23.50;85.90;;;;;;5034199;28;19920;-76
2022/09/15 09:54:05;;;;;;;;;;;23.10;86.10;;;;;;5050760;28;19963;-76
2022/09/15 09:56:30;;;;;;;;;;;22.90;85.50;;;;;;5031355;28;19924;-75
2022/09/15 09:58:56;;;;;;;;;;;23.20;83.70;;;;;;5035346;28;19947;-75
2022/09/15 10:01:23;;;;;;;;;;;23.50;84.20;;;;;;5033286;28;19924;-77
2022/09/15 10:04:07;;;;;;;;;;;23.50;82.90;;;;;;5035023;28;19964;-75
2022/09/15 10:06:33;;;;;;;;;;;23.70;84.90;;;;;;5030856;28;19925;-76
2022/09/15 10:09:03;;;;;;;;;;;23.40;86.10;;;;;;5035228;28;19925;-77
2022/09/15 10:11:43;;;;;;;;;;;23.30;87.90;;;;;;5048676;28;20377;-76
2022/09/15 10:14:24;;;;;;;;;;;23.10;89.30;;;;;;5032000;28;19925;-75
2022/09/15 10:17:12;;;;;;;;;;;23.30;90.10;;;;;;5034925;28;19943;-75
2022/09/15 10:19:49;;;;;;;;;;;23.60;90.40;;;;;;5032193;28;19920;-75
2022/09/15 10:22:36;;;;;;;;;;;24.20;89.40;;;;;;5108797;27;19916;-76
2022/09/15 10:25:18;;;;;;;;;;;24.00;90.20;;;;;;5087060;28;19925;-75
2022/09/15 10:27:44;;;;;;;;;;;23.80;88.00;;;;;;5089403;28;19947;-74
2022/09/15 10:30:13;;;;;;;;;;;22.90;90.10;;;;;;5088234;28;20368;-74
2022/09/15 10:32:39;;;;;;;;;;;22.30;90.40;;;;;;5088457;28;20369;-72
2022/09/15 10:35:13;;;;;;;;;;;21.90;91.20;;;;;;5113188;27;19920;-73
2022/09/15 10:37:57;;;;;;;;;;;22.70;90.40;;;;;;5089689;28;19978;-74
2022/09/15 10:40:30;;;;;;;;;;;24.10;88.80;;;;;;5083770;28;19925;-74
2022/09/15 10:43:22;;;;;;;;;;;25.30;85.10;;;;;;5086581;28;19924;-74
2022/09/15 10:45:51;;;;;;;;;;;25.60;83.10;;;;;;5082328;28;19931;-73
2022/09/15 10:48:25;;;;;;;;;;;26.80;83.10;;;;;;5088587;28;19925;-75
2022/09/15 10:50:54;;;;;;;;;;;26.60;81.50;;;;;;5084933;28;19924;-72
2022/09/15 10:53:38;;;;;;;;;;;26.40;83.20;;;;;;5086696;28;20376;-74
2022/09/15 10:56:18;;;;;;;;;;;26.70;81.70;;;;;;5081013;28;19938;-76
2022/09/15 10:58:54;;;;;;;;;;;27.00;81.70;;;;;;5089675;28;19928;-74
2022/09/15 11:01:19;;;;;;;;;;;27.30;81.10;;;;;;5088566;28;20380;-73
2022/09/15 11:03:48;;;;;;;;;;;27.90;84.20;;;;;;5084925;28;20408;-73
2022/09/15 11:06:28;;;;;;;;;;;28.40;81.20;;;;;;5088713;28;19973;-76
2022/09/15 11:09:05;;;;;;;;;;;27.80;79.90;;;;;;5121882;27;19939;-75
2022/09/15 11:11:50;;;;;;;;;;;27.00;81.10;;;;;;5090240;28;19924;-75
2022/09/15 11:14:24;;;;;;;;;;;27.00;81.40;;;;;;5086563;28;19928;-75
2022/09/15 11:16:53;;;;;;;;;;;27.50;80.50;;;;;;5084210;28;19976;-75
2022/09/15 11:19:20;;;;;;;;;;;27.60;80.70;;;;;;5083342;28;19931;-75
2022/09/15 11:21:50;;;;;;;;;;;28.20;81.00;;;;;;5095058;28;19928;-73
2022/09/15 11:24:26;;;;;;;;;;;28.40;82.40;;;;;;5096101;28;20017;-72
2022/09/15 11:26:55;;;;;;;;;;;28.20;80.00;;;;;;5092414;28;19999;-72
2022/09/15 11:29:35;;;;;;;;;;;28.00;80.40;;;;;;5094535;28;19928;-72
2022/09/15 11:32:04;;;;;;;;;;;27.30;80.80;;;;;;5091631;28;20292;-73
2022/09/15 11:34:34;;;;;;;;;;;26.60;81.00;;;;;;5080307;28;19978;-73
2022/09/15 11:37:04;;;;;;;;;;;25.30;80.70;;;;;;5079217;28;19931;-78
2022/09/15 11:39:35;;;;;;;;;;;24.50;80.40;;;;;;5082290;28;19924;-79
2022/09/15 11:42:12;;;;;;;;;;;23.90;81.40;;;;;;5079448;28;20452;-78
2022/09/15 11:44:43;;;;;;;;;;;24.50;82.30;;;;;;5077952;28;19931;-78
2022/09/15 11:47:33;;;;;;;;;;;25.60;82.30;;;;;;5067358;28;20031;-79
2022/09/15 11:49:59;;;;;;;;;;;26.40;80.50;;;;;;5074996;28;19925;-79
2022/09/15 11:52:33;;;;;;;;;;;25.50;79.20;;;;;;5075466;28;19932;-79
2022/09/15 11:55:02;;;;;;;;;;;24.90;80.20;;;;;;5075937;28;19974;-79
2022/09/15 11:57:30;;;;;;;;;;;24.10;81.60;;;;;;5074830;28;19924;-79
2022/09/15 12:00:01;;;;;;;;;;;23.20;85.60;;;;;;5072667;28;19933;-79
2022/09/15 12:02:33;;;;;;;;;;;22.30;90.30;;;;;;5073020;28;19924;-78
2022/09/15 12:05:17;;;;;;;;;;;21.70;91.60;;;;;;5073393;28;19925;-79
2022/09/15 12:07:46;;;;;;;;;;;20.90;91.60;;;;;;5070861;28;19978;-79
2022/09/15 12:10:14;;;;;;;;;;;21.00;92.70;;;;;;5073616;28;19928;-80
2022/09/15 12:12:40;;;;;;;;;;;20.80;93.10;;;;;;5072659;28;19963;-80
2022/09/15 12:15:12;;;;;;;;;;;21.00;93.20;;;;;;5073893;28;19924;-79
2022/09/15 12:17:42;;;;;;;;;;;21.00;93.00;;;;;;5074182;28;19924;-78
2022/09/15 12:20:38;;;;;;;;;;;20.80;94.30;;;;;;5072619;28;19928;-79
2022/09/15 12:23:10;;;;;;;;;;;20.80;93.40;;;;;;5106249;28;19963;-77
2022/09/15 12:25:54;;;;;;;;;;;20.80;94.10;;;;;;5096738;28;19975;-78
2022/09/15 12:28:20;;;;;;;;;;;21.30;93.40;;;;;;5070245;28;20453;-78
2022/09/15 12:30:48;;;;;;;;;;;21.60;92.70;;;;;;5094418;28;20003;-78
2022/09/15 12:33:32;;;;;;;;;;;22.30;91.60;;;;;;5076362;28;20383;-79
2022/09/15 12:36:18;;;;;;;;;;;22.80;90.00;;;;;;5093314;28;20072;-78
2022/09/15 12:38:47;;;;;;;;;;;23.90;89.50;;;;;;5092829;28;19928;-77
2022/09/15 12:41:13;;;;;;;;;;;24.80;87.20;;;;;;5094277;28;19924;-77
2022/09/15 12:43:38;;;;;;;;;;;25.10;84.70;;;;;;5092928;28;20402;-77
2022/09/15 12:46:04;;;;;;;;;;;24.50;85.70;;;;;;5075795;28;20029;-73
2022/09/15 12:48:31;;;;;;;;;;;23.40;89.50;;;;;;5074458;28;19931;-74
2022/09/15 12:50:59;;;;;;;;;;;22.30;92.70;;;;;;5093530;28;19924;-74
2022/09/15 12:53:27;;;;;;;;;;;20.90;95.60;;;;;;5078098;28;19927;-81
2022/09/15 12:55:54;;;;;;;;;;;19.80;96.50;;;;;;5074627;28;19932;-74
2022/09/15 12:58:27;;;;;;;;;;;19.50;97.30;;;;;;5093294;28;19930;-78
2022/09/15 13:01:12;;;;;;;;;;;19.10;99.30;;;;;;5093507;28;19924;-74
2022/09/15 13:03:38;;;;;;;;;;;18.90;98.80;;;;;;5089674;28;19931;-74
2022/09/15 13:06:23;;;;;;;;;;;18.60;99.90;;;;;;5093419;28;19928;-78
2022/09/15 13:09:09;;;;;;;;;;;18.70;99.90;;;;;;5078365;28;19931;-76
2022/09/15 13:11:46;;;;;;;;;;;18.90;99.90;;;;;;5060864;28;19928;-73
2022/09/15 13:14:13;;;;;;;;;;;19.20;99.90;;;;;;5074771;28;19931;-74
2022/09/15 13:16:39;;;;;;;;;;;19.40;99.90;;;;;;5091925;28;20072;-75
2022/09/15 13:19:25;;;;;;;;;;;19.90;99.90;;;;;;5074877;28;20018;-77
2022/09/15 13:21:57;;;;;;;;;;;20.30;99.90;;;;;;5074895;28;19924;-77
2022/09/15 13:24:26;;;;;;;;;;;20.50;99.90;;;;;;5075132;28;19924;-79
2022/09/15 13:26:54;;;;;;;;;;;20.40;99.30;;;;;;5071092;28;19924;-79
2022/09/15 13:29:21;;;;;;;;;;;20.90;98.40;;;;;;5092553;28;19949;-78
2022/09/15 13:31:52;;;;;;;;;;;21.00;97.90;;;;;;5072679;28;19924;-79
2022/09/15 13:34:20;;;;;;;;;;;20.80;98.50;;;;;;5073662;28;19924;-77
2022/09/15 13:36:49;;;;;;;;;;;20.90;97.80;;;;;;5073969;28;19972;-77
2022/09/15 13:39:17;;;;;;;;;;;20.80;97.70;;;;;;5071387;28;19998;-79
2022/09/15 13:41:43;;;;;;;;;;;20.60;97.60;;;;;;5074647;28;19928;-73
2022/09/15 13:44:28;;;;;;;;;;;20.30;98.70;;;;;;5090144;28;19924;-73
2022/09/15 13:47:03;;;;;;;;;;;20.00;98.90;;;;;;5073340;28;19932;-76
2022/09/15 13:49:36;;;;;;;;;;;19.80;99.90;;;;;;5088146;28;19924;-74
2022/09/15 13:52:10;;;;;;;;;;;19.20;99.90;;;;;;5094968;28;19920;-77
2022/09/15 13:54:36;;;;;;;;;;;18.80;99.90;;;;;;5073285;28;19932;-72
2022/09/15 13:57:01;;;;;;;;;;;18.50;99.90;;;;;;5090943;28;19927;-72
2022/09/15 13:59:28;;;;;;;;;;;18.40;99.90;;;;;;5072132;28;19947;-73
2022/09/15 14:01:55;;;;;;;;;;;18.40;99.90;;;;;;5089279;28;20055;-73
2022/09/15 14:04:23;;;;;;;;;;;18.60;99.90;;;;;;5070619;28;20432;-71
2022/09/15 14:06:51;;;;;;;;;;;18.90;99.90;;;;;;5090707;28;19928;-74
2022/09/15 14:09:25;;;;;;;;;;;18.90;99.90;;;;;;5071476;28;19931;-72
2022/09/15 14:11:52;;;;;;;;;;;19.00;99.90;;;;;;5089551;28;19971;-73
2022/09/15 14:14:38;;;;;;;;;;;19.20;99.90;;;;;;5088333;28;20394;-75
2022/09/15 14:17:24;;;;;;;;;;;19.30;99.90;;;;;;5094858;28;19953;-75
2022/09/15 14:19:51;;;;;;;;;;;19.20;99.90;;;;;;5090683;28;20012;-74
2022/09/15 14:22:17;;;;;;;;;;;18.90;99.90;;;;;;5089268;28;19931;-73
2022/09/15 14:24:43;;;;;;;;;;;18.60;99.90;;;;;;5086000;28;20381;-69
2022/09/15 14:27:09;;;;;;;;;;;18.10;99.90;;;;;;5072309;28;20046;-74
2022/09/15 14:29:49;;;;;;;;;;;17.70;99.90;;;;;;5071749;28;19924;-73